createdAt,value
2023-04-08T00:00:55.626Z,51.16
2023-04-08T00:03:22.315Z,51.22
2023-04-08T00:05:48.952Z,51.32
2023-04-08T00:08:15.629Z,50.99
2023-04-08T00:10:42.243Z,50.85
2023-04-08T00:13:08.811Z,51.35
2023-04-08T00:15:36.958Z,52.15
2023-04-08T00:18:03.586Z,51.69
2023-04-08T00:20:30.274Z,51.82
2023-04-08T00:22:56.803Z,52.32
2023-04-08T00:25:25.397Z,52.07
2023-04-08T00:27:52.529Z,51.71
2023-04-08T00:30:19.412Z,51.77
2023-04-08T00:32:46.685Z,51.87
2023-04-08T00:35:13.978Z,52.42
2023-04-08T00:37:41.331Z,52.43
2023-04-08T00:40:08.391Z,52.40
2023-04-08T00:42:35.015Z,52.51
2023-04-08T00:45:01.711Z,52.28
2023-04-08T00:47:28.294Z,52.17
2023-04-08T00:49:55.038Z,52.44
2023-04-08T00:52:21.599Z,52.17
2023-04-08T00:54:48.159Z,52.06
2023-04-08T00:57:15.366Z,52.16
2023-04-08T00:59:42.607Z,52.43
2023-04-08T01:02:35.696Z,52.40
2023-04-08T01:05:05.681Z,52.19
2023-04-08T01:07:37.547Z,51.96
2023-04-08T01:10:30.148Z,52.40
2023-04-08T01:12:59.282Z,52.34
2023-04-08T01:15:27.895Z,52.77
2023-04-08T01:17:56.670Z,53.55
2023-04-08T01:20:27.743Z,52.83
2023-04-08T01:23:00.138Z,52.57
2023-04-08T01:25:32.754Z,52.46
2023-04-08T01:28:21.232Z,52.97
2023-04-08T01:30:49.765Z,53.16
2023-04-08T01:33:18.491Z,54.41
2023-04-08T01:35:46.254Z,54.80
2023-04-08T01:38:16.480Z,54.15
2023-04-08T01:40:44.482Z,54.00
2023-04-08T01:43:14.902Z,54.10
2023-04-08T01:45:43.916Z,53.83
2023-04-08T01:48:12.476Z,53.59
2023-04-08T01:50:41.500Z,54.03
2023-04-08T01:53:10.065Z,54.71
2023-04-08T01:55:39.072Z,54.04
2023-04-08T01:58:07.689Z,54.72
2023-04-08T02:00:35.983Z,54.51
2023-04-08T02:03:05.892Z,54.47
2023-04-08T02:05:32.729Z,54.22
2023-04-08T02:07:59.337Z,55.10
2023-04-08T02:10:27.418Z,54.69
2023-04-08T02:12:55.547Z,54.46
2023-04-08T02:15:22.436Z,55.11
2023-04-08T02:18:00.704Z,54.70
2023-04-08T02:20:34.671Z,54.54
2023-04-08T02:23:14.597Z,54.78
2023-04-08T02:25:44.319Z,54.64
2023-04-08T02:28:12.107Z,54.04
2023-04-08T02:30:43.634Z,54.07
2023-04-08T02:33:12.317Z,53.86
2023-04-08T02:35:41.360Z,54.23
2023-04-08T02:38:10.238Z,54.08
2023-04-08T02:40:37.719Z,54.04
2023-04-08T02:43:04.354Z,54.28
2023-04-08T02:45:33.842Z,54.26
2023-04-08T02:48:01.489Z,53.93
2023-04-08T02:50:28.162Z,53.95
2023-04-08T02:52:55.039Z,53.79
2023-04-08T02:55:21.658Z,53.89
2023-04-08T02:57:48.901Z,53.82
2023-04-08T03:00:16.138Z,54.13
2023-04-08T03:02:42.796Z,53.85
2023-04-08T03:05:09.928Z,53.92
2023-04-08T03:07:36.605Z,54.27
2023-04-08T03:10:03.494Z,54.18
2023-04-08T03:12:30.006Z,54.46
2023-04-08T03:14:56.536Z,54.78
2023-04-08T03:17:23.242Z,54.79
2023-04-08T03:19:49.795Z,54.45
2023-04-08T03:22:16.383Z,55.00
2023-04-08T03:24:42.963Z,54.76
2023-04-08T03:27:09.551Z,55.17
2023-04-08T03:29:36.070Z,54.61
2023-04-08T03:32:02.941Z,54.79
2023-04-08T03:34:29.532Z,54.68
2023-04-08T03:36:56.047Z,54.50
2023-04-08T03:39:22.636Z,54.38
2023-04-08T03:41:49.154Z,53.99
2023-04-08T03:44:15.853Z,53.71
2023-04-08T03:46:42.399Z,53.52
2023-04-08T03:49:08.906Z,53.70
2023-04-08T03:51:35.424Z,54.05
2023-04-08T03:54:02.012Z,53.42
2023-04-08T03:56:28.643Z,53.71
2023-04-08T03:58:55.184Z,53.62
2023-04-08T04:01:21.706Z,53.25
2023-04-08T04:03:48.381Z,53.91
2023-04-08T04:06:15.280Z,54.01
2023-04-08T04:08:41.808Z,53.46
2023-04-08T04:11:08.310Z,53.48
2023-04-08T04:13:34.826Z,53.21
2023-04-08T04:16:01.387Z,53.64
2023-04-08T04:18:27.967Z,53.61
2023-04-08T04:20:54.564Z,53.85
2023-04-08T04:23:21.311Z,54.15
2023-04-08T04:25:47.839Z,53.83
2023-04-08T04:28:14.382Z,54.46
2023-04-08T04:30:41.047Z,54.07
2023-04-08T04:33:07.680Z,53.70
2023-04-08T04:35:34.561Z,53.67
2023-04-08T04:38:01.566Z,53.30
2023-04-08T04:40:28.189Z,53.70
2023-04-08T04:42:54.764Z,53.66
2023-04-08T04:45:21.282Z,53.45
2023-04-08T04:47:47.836Z,53.58
2023-04-08T04:50:14.386Z,53.31
2023-04-08T04:52:41.435Z,52.65
2023-04-08T04:55:08.403Z,53.37
2023-04-08T04:57:34.908Z,52.79
2023-04-08T05:00:03.896Z,52.98
2023-04-08T05:02:32.176Z,52.48
2023-04-08T05:04:58.865Z,52.81
2023-04-08T05:07:25.620Z,52.46
2023-04-08T05:09:52.197Z,52.84
2023-04-08T05:12:20.591Z,52.76
2023-04-08T05:14:47.171Z,52.66
2023-04-08T05:17:13.777Z,52.08
2023-04-08T05:19:40.417Z,51.90
2023-04-08T05:22:07.014Z,52.20
2023-04-08T05:24:33.526Z,52.16
2023-04-08T05:27:00.059Z,51.98
2023-04-08T05:29:27.478Z,51.62
2023-04-08T05:31:54.099Z,51.15
2023-04-08T05:34:23.040Z,50.85
2023-04-08T05:36:51.942Z,50.33
2023-04-08T05:39:19.342Z,50.55
2023-04-08T05:41:46.540Z,50.79
2023-04-08T05:44:16.734Z,50.67
2023-04-08T05:46:43.346Z,50.50
2023-04-08T05:49:09.992Z,50.24
2023-04-08T05:51:36.537Z,50.58
2023-04-08T05:54:03.152Z,50.51
2023-04-08T05:56:29.751Z,50.39
2023-04-08T05:58:56.343Z,50.49
2023-04-08T06:01:22.862Z,50.35
2023-04-08T06:03:49.665Z,50.25
2023-04-08T06:06:16.361Z,50.13
2023-04-08T06:08:42.872Z,50.13
2023-04-08T06:11:09.643Z,50.04
2023-04-08T06:13:37.168Z,50.39
2023-04-08T06:16:11.188Z,49.98
2023-04-08T06:18:38.018Z,50.61
2023-04-08T06:21:04.587Z,50.05
2023-04-08T06:23:31.136Z,50.68
2023-04-08T06:25:58.525Z,50.57
2023-04-08T06:28:25.251Z,50.42
2023-04-08T06:30:51.781Z,50.70
2023-04-08T06:33:18.316Z,50.55
2023-04-08T06:35:44.914Z,50.57
2023-04-08T06:38:11.471Z,51.23
2023-04-08T06:40:39.587Z,51.01
2023-04-08T06:43:07.772Z,51.12
2023-04-08T06:45:38.370Z,51.02
2023-04-08T06:48:06.678Z,50.71
2023-04-08T06:50:33.290Z,50.86
2023-04-08T06:53:00.360Z,51.29
2023-04-08T06:55:27.079Z,51.67
2023-04-08T06:57:53.637Z,51.31
2023-04-08T07:00:20.596Z,51.24
2023-04-08T07:02:47.353Z,51.07
2023-04-08T07:05:14.097Z,50.56
2023-04-08T07:07:40.816Z,51.18
2023-04-08T07:10:10.363Z,51.01
2023-04-08T07:12:37.520Z,50.99
2023-04-08T07:15:04.407Z,51.50
2023-04-08T07:17:30.966Z,51.09
2023-04-08T07:19:57.894Z,50.86
2023-04-08T07:22:24.414Z,50.57
2023-04-08T07:24:51.115Z,50.17
2023-04-08T07:27:17.662Z,49.08
2023-04-08T07:29:44.380Z,48.87
2023-04-08T07:32:11.180Z,49.47
2023-04-08T07:34:37.766Z,49.29
2023-04-08T07:37:04.270Z,48.00
2023-04-08T07:39:31.086Z,48.22
2023-04-08T07:41:57.639Z,48.43
2023-04-08T07:44:24.204Z,47.83
2023-04-08T07:46:51.788Z,47.73
2023-04-08T07:49:18.511Z,47.07
2023-04-08T07:51:45.027Z,47.35
2023-04-08T07:54:12.518Z,46.97
2023-04-08T07:56:40.407Z,46.97
2023-04-08T07:59:07.346Z,47.38
2023-04-08T08:01:35.684Z,46.45
2023-04-08T08:04:03.467Z,46.66
2023-04-08T08:06:32.320Z,46.42
2023-04-08T08:08:59.470Z,45.13
2023-04-08T08:11:29.295Z,45.08
2023-04-08T08:13:55.949Z,44.30
2023-04-08T08:16:22.825Z,42.00
2023-04-08T08:18:49.486Z,42.57
2023-04-08T08:21:16.021Z,42.43
2023-04-08T08:23:42.627Z,41.73
2023-04-08T08:26:10.530Z,41.30
2023-04-08T08:28:38.467Z,41.33
2023-04-08T08:31:06.123Z,41.53
2023-04-08T08:33:33.308Z,41.91
2023-04-08T08:36:00.072Z,43.11
2023-04-08T08:38:27.201Z,44.37
2023-04-08T08:40:56.206Z,45.29
2023-04-08T08:43:23.525Z,46.49
2023-04-08T08:45:50.125Z,46.79
2023-04-08T08:48:17.368Z,47.19
2023-04-08T08:50:44.216Z,46.96
2023-04-08T08:53:10.756Z,47.90
2023-04-08T08:56:05.753Z,48.07
2023-04-08T08:58:29.136Z,47.50
2023-04-08T09:00:55.882Z,47.55
2023-04-08T09:03:29.963Z,48.13
2023-04-08T09:05:58.873Z,47.24
2023-04-08T09:08:33.460Z,46.42
2023-04-08T09:11:16.310Z,47.95
2023-04-08T09:13:44.212Z,47.36
2023-04-08T09:16:12.850Z,47.50
2023-04-08T09:18:40.999Z,47.78
2023-04-08T09:21:07.576Z,49.15
2023-04-08T09:23:42.952Z,49.16
2023-04-08T09:26:12.963Z,49.22
2023-04-08T09:28:41.134Z,49.57
2023-04-08T09:31:28.693Z,50.24
2023-04-08T09:34:00.170Z,50.18
2023-04-08T09:36:27.429Z,50.28
2023-04-08T09:38:55.017Z,50.89
2023-04-08T09:41:23.600Z,50.33
2023-04-08T09:43:56.968Z,50.56
2023-04-08T09:46:37.696Z,50.77
2023-04-08T09:49:28.677Z,51.38
2023-04-08T09:52:08.618Z,50.56
2023-04-08T09:54:55.835Z,50.83
2023-04-08T09:57:33.408Z,50.47
2023-04-08T10:00:12.987Z,50.04
2023-04-08T10:03:04.892Z,48.12
2023-04-08T10:05:31.969Z,49.41
2023-04-08T10:07:59.092Z,47.69
2023-04-08T10:10:27.185Z,47.09
2023-04-08T10:12:54.172Z,46.72
2023-04-08T10:15:26.833Z,46.08
2023-04-08T10:17:55.115Z,45.46
2023-04-08T10:20:42.528Z,45.62
2023-04-08T10:23:11.362Z,45.01
2023-04-08T10:25:39.195Z,44.65
2023-04-08T10:28:11.837Z,43.79
2023-04-08T10:30:38.952Z,44.27
2023-04-08T10:33:13.618Z,42.81
2023-04-08T10:35:48.381Z,42.10
2023-04-08T10:38:16.705Z,41.75
2023-04-08T10:40:44.509Z,43.03
2023-04-08T10:43:13.297Z,41.54
2023-04-08T10:45:41.110Z,41.19
2023-04-08T10:48:24.674Z,41.67
2023-04-08T10:50:57.245Z,41.84
2023-04-08T10:53:27.227Z,40.55
2023-04-08T10:55:54.405Z,39.65
2023-04-08T10:58:21.823Z,40.67
2023-04-08T11:00:48.338Z,41.04
2023-04-08T11:03:15.803Z,41.42
2023-04-08T11:05:42.578Z,42.16
2023-04-08T11:08:09.163Z,42.94
2023-04-08T11:10:39.024Z,42.39
2023-04-08T11:13:09.784Z,42.68
2023-04-08T11:15:37.161Z,43.07
2023-04-08T11:18:05.493Z,43.36
2023-04-08T11:20:36.019Z,43.01
2023-04-08T11:23:03.475Z,43.19
2023-04-08T11:25:30.345Z,43.43
2023-04-08T11:27:57.009Z,44.33
2023-04-08T11:30:24.155Z,44.43
2023-04-08T11:32:52.156Z,44.36
2023-04-08T11:35:18.854Z,44.80
2023-04-08T11:37:47.574Z,45.44
2023-04-08T11:40:20.997Z,44.75
2023-04-08T11:42:47.861Z,45.29
2023-04-08T11:45:16.832Z,45.81
2023-04-08T11:47:44.253Z,46.24
2023-04-08T11:50:10.832Z,45.75
2023-04-08T11:52:45.424Z,45.82
2023-04-08T11:55:13.257Z,46.14
2023-04-08T11:57:39.856Z,46.55
2023-04-08T12:00:07.763Z,45.74
2023-04-08T12:02:37.454Z,45.33
2023-04-08T12:05:04.187Z,45.31
2023-04-08T12:07:30.783Z,44.92
2023-04-08T12:09:57.309Z,45.26
2023-04-08T12:12:23.970Z,45.77
2023-04-08T12:14:50.624Z,45.36
2023-04-08T12:17:17.190Z,45.82
2023-04-08T12:19:43.747Z,46.81
2023-04-08T12:22:10.315Z,46.23
2023-04-08T12:24:36.837Z,46.06
2023-04-08T12:27:04.970Z,46.81
2023-04-08T12:29:31.980Z,47.17
2023-04-08T12:31:58.912Z,46.63
2023-04-08T12:34:25.637Z,46.31
2023-04-08T12:36:52.197Z,46.67
2023-04-08T12:39:18.869Z,46.48
2023-04-08T12:41:45.426Z,46.61
2023-04-08T12:44:12.029Z,46.97
2023-04-08T12:46:38.533Z,46.74
2023-04-08T12:49:06.091Z,47.40
2023-04-08T12:51:33.354Z,47.14
2023-04-08T12:54:01.179Z,47.18
2023-04-08T12:56:27.760Z,48.23
2023-04-08T12:58:55.708Z,48.35
2023-04-08T13:01:22.290Z,49.23
2023-04-08T13:03:49.260Z,48.70
2023-04-08T13:06:16.651Z,48.54
2023-04-08T13:08:43.225Z,48.82
2023-04-08T13:11:09.764Z,49.10
2023-04-08T13:13:36.585Z,49.63
2023-04-08T13:16:03.193Z,50.24
2023-04-08T13:18:29.874Z,49.84
2023-04-08T13:20:57.991Z,49.66
2023-04-08T13:23:24.545Z,50.21
2023-04-08T13:25:51.410Z,51.07
2023-04-08T13:28:18.017Z,50.85
2023-04-08T13:30:44.570Z,50.41
2023-04-08T13:33:11.124Z,50.77
2023-04-08T13:35:37.687Z,51.14
2023-04-08T13:38:04.310Z,52.29
2023-04-08T13:40:31.753Z,51.81
2023-04-08T13:42:58.542Z,51.60
2023-04-08T13:45:25.218Z,51.68
2023-04-08T13:47:51.852Z,52.18
2023-04-08T13:50:18.452Z,52.28
2023-04-08T13:52:45.031Z,51.99
2023-04-08T13:55:11.563Z,52.46
2023-04-08T13:57:38.085Z,52.67
2023-04-08T14:00:05.087Z,52.85
2023-04-08T14:02:37.171Z,52.80
2023-04-08T14:05:04.408Z,53.20
2023-04-08T14:07:30.954Z,53.01
2023-04-08T14:09:57.489Z,53.08
2023-04-08T14:12:24.033Z,53.06
2023-04-08T14:14:50.587Z,53.53
2023-04-08T14:17:17.183Z,52.78
2023-04-08T14:19:43.757Z,51.97
2023-04-08T14:22:10.405Z,52.20
2023-04-08T14:24:36.924Z,52.20
2023-04-08T14:27:03.570Z,52.54
2023-04-08T14:29:30.337Z,52.25
2023-04-08T14:31:56.860Z,52.48
2023-04-08T14:34:24.035Z,52.46
2023-04-08T14:36:50.561Z,52.40
2023-04-08T14:39:17.082Z,52.17
2023-04-08T14:41:43.704Z,51.97
2023-04-08T14:44:10.409Z,51.89
2023-04-08T14:46:37.306Z,51.09
2023-04-08T14:49:04.085Z,50.76
2023-04-08T14:51:31.473Z,50.64
2023-04-08T14:53:58.029Z,50.11
2023-04-08T14:56:24.561Z,50.40
2023-04-08T14:58:51.348Z,49.84
2023-04-08T15:01:18.105Z,49.49
2023-04-08T15:03:44.782Z,49.39
2023-04-08T15:06:16.726Z,49.64
2023-04-08T15:08:43.896Z,48.81
2023-04-08T15:11:10.433Z,48.66
2023-04-08T15:13:36.929Z,48.79
2023-04-08T15:16:03.907Z,48.85
2023-04-08T15:18:30.683Z,49.10
2023-04-08T15:20:58.075Z,48.61
2023-04-08T15:23:24.652Z,48.66
2023-04-08T15:25:51.259Z,48.77
2023-04-08T15:28:17.775Z,49.01
2023-04-08T15:30:44.296Z,48.51
2023-04-08T15:33:10.843Z,48.78
2023-04-08T15:35:40.735Z,48.55
2023-04-08T15:38:07.775Z,48.58
2023-04-08T15:40:34.434Z,48.57
2023-04-08T15:43:01.513Z,49.09
2023-04-08T15:45:28.555Z,48.88
2023-04-08T15:47:55.574Z,48.80
2023-04-08T15:50:22.387Z,48.93
2023-04-08T15:52:49.384Z,49.13
2023-04-08T15:55:16.040Z,48.66
2023-04-08T15:57:42.591Z,48.55
2023-04-08T16:00:10.754Z,48.65
2023-04-08T16:02:40.631Z,48.65
2023-04-08T16:05:07.905Z,48.62
2023-04-08T16:07:34.469Z,48.70
2023-04-08T16:10:01.586Z,48.75
2023-04-08T16:12:28.758Z,48.98
2023-04-08T16:14:55.490Z,49.34
2023-04-08T16:17:22.108Z,49.06
2023-04-08T16:19:50.505Z,49.63
2023-04-08T16:22:17.350Z,49.79
2023-04-08T16:24:43.888Z,49.59
2023-04-08T16:27:10.565Z,49.97
2023-04-08T16:29:37.082Z,49.67
2023-04-08T16:32:04.617Z,49.73
2023-04-08T16:34:31.181Z,50.18
2023-04-08T16:36:57.736Z,50.79
2023-04-08T16:39:24.270Z,51.26
2023-04-08T16:41:51.388Z,51.60
2023-04-08T16:44:17.894Z,51.38
2023-04-08T16:46:44.443Z,51.75
2023-04-08T16:49:13.403Z,52.09
2023-04-08T16:51:41.115Z,52.19
2023-04-08T16:54:07.615Z,52.89
2023-04-08T16:56:34.191Z,53.03
2023-04-08T16:59:00.697Z,52.95
2023-04-08T17:01:27.248Z,52.90
2023-04-08T17:03:54.147Z,53.08
2023-04-08T17:06:20.946Z,53.00
2023-04-08T17:08:47.512Z,52.95
2023-04-08T17:11:15.559Z,52.74
2023-04-08T17:13:43.948Z,52.27
2023-04-08T17:16:15.650Z,52.46
2023-04-08T17:18:42.965Z,52.46
2023-04-08T17:21:09.987Z,52.63
2023-04-08T17:23:36.538Z,52.44
2023-04-08T17:26:09.991Z,52.50
2023-04-08T17:28:36.515Z,52.40
2023-04-08T17:31:03.125Z,52.58
2023-04-08T17:33:29.797Z,52.18
2023-04-08T17:35:56.428Z,51.82
2023-04-08T17:38:23.037Z,52.10
2023-04-08T17:40:49.592Z,52.03
2023-04-08T17:43:16.342Z,52.32
2023-04-08T17:45:42.950Z,51.82
2023-04-08T17:48:09.898Z,51.56
2023-04-08T17:50:36.669Z,52.01
2023-04-08T17:53:03.257Z,52.03
2023-04-08T17:55:29.812Z,51.72
2023-04-08T17:57:56.379Z,51.57
2023-04-08T18:00:22.942Z,51.55
2023-04-08T18:02:50.306Z,51.64
2023-04-08T18:05:16.965Z,51.51
2023-04-08T18:07:43.537Z,51.29
2023-04-08T18:10:10.122Z,51.51
2023-04-08T18:12:36.761Z,51.49
2023-04-08T18:15:03.566Z,51.60
2023-04-08T18:17:30.409Z,51.61
2023-04-08T18:19:58.434Z,51.52
2023-04-08T18:22:26.125Z,51.25
2023-04-08T18:24:52.702Z,51.82
2023-04-08T18:27:19.265Z,52.10
2023-04-08T18:29:45.918Z,52.21
2023-04-08T18:32:12.587Z,52.09
2023-04-08T18:34:39.101Z,52.58
2023-04-08T18:37:05.932Z,52.58
2023-04-08T18:39:32.542Z,52.73
2023-04-08T18:41:59.086Z,52.98
2023-04-08T18:44:25.759Z,53.17
2023-04-08T18:46:52.378Z,52.83
2023-04-08T18:49:18.932Z,53.04
2023-04-08T18:51:59.136Z,52.83
2023-04-08T18:54:28.801Z,52.78
2023-04-08T18:56:55.433Z,52.60
2023-04-08T18:59:22.137Z,52.85
2023-04-08T19:01:48.919Z,52.72
2023-04-08T19:04:16.536Z,52.71
2023-04-08T19:06:43.055Z,53.18
2023-04-08T19:09:09.712Z,52.91
2023-04-08T19:11:36.353Z,52.89
2023-04-08T19:14:02.844Z,52.75
2023-04-08T19:16:29.383Z,52.74
2023-04-08T19:18:56.080Z,52.50
2023-04-08T19:21:23.184Z,52.14
2023-04-08T19:23:50.018Z,52.36
2023-04-08T19:26:17.232Z,52.33
2023-04-08T19:28:43.842Z,52.35
2023-04-08T19:31:18.169Z,52.35
2023-04-08T19:33:44.916Z,52.54
2023-04-08T19:36:11.927Z,52.24
2023-04-08T19:38:38.784Z,52.56
2023-04-08T19:41:05.386Z,52.52
2023-04-08T19:43:31.894Z,52.11
2023-04-08T19:45:58.818Z,52.38
2023-04-08T19:48:26.015Z,52.23
2023-04-08T19:50:52.543Z,52.18
2023-04-08T19:53:19.066Z,52.55
2023-04-08T19:55:45.832Z,52.39
2023-04-08T19:58:12.396Z,51.88
2023-04-08T20:00:39.311Z,51.90
2023-04-08T20:03:06.331Z,52.01
2023-04-08T20:05:33.352Z,52.23
2023-04-08T20:07:59.932Z,51.90
2023-04-08T20:10:26.547Z,51.91
2023-04-08T20:12:53.726Z,51.85
2023-04-08T20:15:24.815Z,51.87
2023-04-08T20:17:52.983Z,51.29
2023-04-08T20:20:19.952Z,51.71
2023-04-08T20:22:46.581Z,52.05
2023-04-08T20:25:13.251Z,51.74
2023-04-08T20:27:39.861Z,52.25
2023-04-08T20:30:07.346Z,51.88
2023-04-08T20:32:34.666Z,52.01
2023-04-08T20:35:01.332Z,52.23
2023-04-08T20:37:28.666Z,52.15
2023-04-08T20:39:55.164Z,52.02
2023-04-08T20:42:21.721Z,52.10
2023-04-08T20:44:48.240Z,51.74
2023-04-08T20:47:15.502Z,51.71
2023-04-08T20:49:42.729Z,51.71
2023-04-08T20:52:09.333Z,51.62
2023-04-08T20:54:36.130Z,51.38
2023-04-08T20:57:02.705Z,51.69
2023-04-08T20:59:29.270Z,51.73
2023-04-08T21:01:55.824Z,51.34
2023-04-08T21:04:24.376Z,51.70
2023-04-08T21:06:51.437Z,51.75
2023-04-08T21:09:18.019Z,51.57
2023-04-08T21:11:44.755Z,51.61
2023-04-08T21:14:11.863Z,51.86
2023-04-08T21:16:38.396Z,51.64
2023-04-08T21:19:04.979Z,51.56
2023-04-08T21:21:32.098Z,51.56
2023-04-08T21:24:00.456Z,51.31
2023-04-08T21:26:27.604Z,51.64
2023-04-08T21:28:54.244Z,51.37
2023-04-08T21:31:21.008Z,51.46
2023-04-08T21:33:47.664Z,51.64
2023-04-08T21:36:14.248Z,51.96
2023-04-08T21:38:42.030Z,51.54
2023-04-08T21:41:08.546Z,51.52
2023-04-08T21:43:35.240Z,51.15
2023-04-08T21:46:01.876Z,51.27
2023-04-08T21:48:28.497Z,50.96
2023-04-08T21:50:55.255Z,50.76
2023-04-08T21:53:22.335Z,50.79
2023-04-08T21:55:48.850Z,50.86
2023-04-08T21:58:16.512Z,50.89
2023-04-08T22:00:43.059Z,51.29
2023-04-08T22:03:09.689Z,51.19
2023-04-08T22:05:36.786Z,51.29
2023-04-08T22:08:03.326Z,51.03
2023-04-08T22:10:29.878Z,51.20
2023-04-08T22:12:56.378Z,51.24
2023-04-08T22:15:22.992Z,50.98
2023-04-08T22:17:49.639Z,50.98
2023-04-08T22:20:16.233Z,51.05
2023-04-08T22:22:42.891Z,51.32
2023-04-08T22:25:09.670Z,51.04
2023-04-08T22:27:36.342Z,51.39
2023-04-08T22:30:02.907Z,51.28
2023-04-08T22:32:29.492Z,51.47
2023-04-08T22:34:56.324Z,51.06
2023-04-08T22:37:22.910Z,51.10
2023-04-08T22:39:49.422Z,50.88
2023-04-08T22:42:15.911Z,50.91
2023-04-08T22:44:42.500Z,51.08
2023-04-08T22:47:09.006Z,51.03
2023-04-08T22:49:35.594Z,51.13
2023-04-08T22:52:02.149Z,51.13
2023-04-08T22:54:28.645Z,51.06
2023-04-08T22:56:55.683Z,50.96
2023-04-08T22:59:22.202Z,51.19
2023-04-08T23:01:48.797Z,50.25
2023-04-08T23:04:15.445Z,50.37
2023-04-08T23:06:42.064Z,50.57
2023-04-08T23:09:08.568Z,50.58
2023-04-08T23:11:35.202Z,50.60
2023-04-08T23:14:01.713Z,50.28
2023-04-08T23:16:28.383Z,50.78
2023-04-08T23:18:55.053Z,51.04
2023-04-08T23:21:21.572Z,50.65
2023-04-08T23:23:48.203Z,50.51
2023-04-08T23:26:18.852Z,51.04
2023-04-08T23:28:45.664Z,51.05
2023-04-08T23:31:12.210Z,51.48
2023-04-08T23:33:39.084Z,51.31
2023-04-08T23:36:10.174Z,51.36
2023-04-08T23:38:39.610Z,51.43
2023-04-08T23:41:06.925Z,51.66
2023-04-08T23:43:33.899Z,51.38
2023-04-08T23:46:00.416Z,51.48
2023-04-08T23:48:26.983Z,51.50
2023-04-08T23:50:54.584Z,51.16
2023-04-08T23:53:21.696Z,51.75
2023-04-08T23:55:48.304Z,51.57
2023-04-08T23:58:14.813Z,51.57
